Latest Weather Observations for Urandangi

IDQ60801

Issued at 10:32 am EST Wednesday 10 February 2016 (issued every 30 minutes, with the page automatically refreshed every 10 minutes)

About weather observations | Map of weather stations | Latest weather observations for QLD | Other Formats
Station Details ID: 037058 Name: URANDANGI AERODROME Lat: -21.60 Lon: 138.37 Height: 178.6 m
Data from the previous 72 hours. | See also: Recent months at Urandangi
Date/Time
EST
Temp
°C
App
Temp
°C
Dew
Point
Rel
Hum
%
Delta-T
°C
Wind Press
QNH
hPa
Press
MSL
hPa
Rain
since 9 am
mm
Dir
 
Spd
km/h
Gust
km/h
Spd
kts
Gust
kts
10/10:30am 32.6 34.9 19.8 46 8.5 SE 7 13 4 7 1010.0 1008.7 0.0
10/10:00am 31.8 34.8 20.1 50 7.8 S 4 7 2 4 1010.1 1008.8 0.0
10/09:30am 30.8 34.0 19.8 52 7.3 WNW 2 6 1 3 1010.0 1008.7 0.0
10/09:00am 30.0 33.1 20.3 56 6.5 NW 4 6 2 3 1010.0 1008.7 0.0
10/08:30am 29.4 32.0 20.5 58 5.9 NNW 7 9 4 5 1009.7 1008.4 0.0
10/08:00am 28.4 31.3 20.7 63 5.1 N 6 7 3 4 1009.8 1008.5 0.0
10/07:30am 26.6 30.3 21.4 73 3.5 N 4 7 2 4 1009.4 1008.1 0.0
10/07:00am 25.2 28.8 21.3 79 2.6 N 4 6 2 3 1009.2 1007.9 0.0
10/06:30am 24.7 28.0 21.4 82 2.2 N 6 7 3 4 1008.9 1007.6 0.0
10/06:00am 24.8 28.2 21.7 83 2.1 NNE 6 7 3 4 1008.7 1007.4 0.0
10/05:30am 24.9 28.4 21.8 83 2.1 NNE 6 9 3 5 1008.4 1007.1 0.0
10/05:00am 25.0 28.4 21.7 82 2.2 NNE 6 6 3 3 1008.2 1006.9 0.0
10/04:30am 25.1 28.7 22.0 83 2.1 N 6 13 3 7 1008.0 1006.7 0.0
10/04:00am 24.5 28.5 22.0 86 1.7 SW 4 4 2 2 1008.1 1006.8 0.0
10/03:30am 24.8 29.5 21.9 84 1.9 CALM 0 6 0 3 1007.9 1006.5 0.0
10/03:00am 25.1 28.5 21.6 81 2.3 WSW 6 6 3 3 1007.7 1006.3 0.0
10/02:30am 25.1 29.6 21.6 81 2.3 CALM 0 4 0 2 1007.7 1006.3 0.0
10/02:00am 26.0 29.4 21.0 74 3.3 NW 4 6 2 3 1007.9 1006.5 0.0
10/01:30am 26.1 29.0 21.1 74 3.3 WNW 7 7 4 4 1008.2 1006.9 0.0
10/01:00am 26.5 29.4 21.0 72 3.7 NW 7 9 4 5 1008.4 1007.1 0.0
10/12:30am 26.9 29.6 20.7 69 4.1 NNW 7 9 4 5 1008.6 1007.3 0.0
10/12:00am 27.8 29.6 20.4 64 4.9 N 11 15 6 8 1009.0 1007.7 0.0
 
Date/Time
EST
Temp
°C
App
Temp
°C
Dew
Point
Rel
Hum
%
Delta-T
°C
Wind Press
QNH
hPa
Press
MSL
hPa
Rain
since 9 am
mm
Dir
 
Spd
km/h
Gust
km/h
Spd
kts
Gust
kts
09/11:30pm 28.5 29.6 20.5 62 5.3 N 15 19 8 10 1009.1 1007.8 0.0
09/11:00pm 28.5 31.3 20.5 62 5.3 NNW 6 7 3 4 1008.9 1007.6 0.0
09/10:30pm 28.9 31.8 20.6 61 5.5 N 6 9 3 5 1008.7 1007.4 0.0
09/10:00pm 28.9 32.5 20.6 61 5.5 N 2 4 1 2 1008.3 1007.0 0.0
09/09:30pm 30.0 32.5 20.3 56 6.4 N 7 9 4 5 1008.2 1006.9 0.0
09/09:00pm 30.8 33.2 20.1 53 7.1 N 7 11 4 6 1008.0 1006.7 0.0
09/08:30pm 31.2 32.0 19.9 51 7.5 N 15 20 8 11 1007.8 1006.4 0.0
09/08:00pm 31.9 33.9 19.9 49 8.0 N 9 13 5 7 1007.7 1006.3 0.0
09/07:30pm 33.0 33.8 17.2 39 10.1 SSE 9 13 5 7 1007.3 1005.9 0.0
09/07:00pm 34.3 34.3 16.2 34 11.5 S 11 15 6 8 1007.0 1005.6 0.0
09/06:30pm 35.0 33.9 15.3 30 12.4 SSE 15 20 8 11 1006.9 1005.5 0.0
09/06:00pm 35.9 33.6 14.0 27 13.6 SSE 19 28 10 15 1006.9 1005.5 0.0
09/05:30pm 37.0 34.2 14.3 26 14.2 SE 22 32 12 17 1006.8 1005.4 0.0
09/05:00pm 37.2 34.3 15.1 27 14.0 SE 24 35 13 19 1006.7 1005.3 0.0
09/04:30pm 37.0 35.0 15.5 28 13.7 SSE 20 33 11 18 1006.7 1005.3 0.0
09/04:00pm 37.4 35.0 16.4 29 13.6 SSE 24 32 13 17 1006.6 1005.2 0.0
09/03:30pm 37.8 36.5 17.2 29 13.4 SSE 20 32 11 17 1007.0 1005.6 0.0
09/03:00pm 36.8 36.1 16.4 30 13.1 SE 15 28 8 15 1007.4 1006.0 0.0
09/02:30pm 36.4 36.4 18.0 33 12.1 SSE 15 22 8 12 1007.9 1006.5 0.0
09/02:00pm 36.3 35.5 17.9 33 12.1 SE 19 26 10 14 1008.4 1007.1 0.0
09/01:30pm 36.6 36.7 19.1 35 11.7 SE 17 24 9 13 1008.8 1007.5 0.0
09/01:00pm 35.6 36.0 19.1 38 11.0 ESE 15 24 8 13 1009.2 1007.9 0.0
09/12:30pm 35.4 35.2 19.3 38 10.7 ESE 19 24 10 13 1009.5 1008.2 0.0
09/12:00pm 35.2 35.1 19.6 40 10.4 ESE 19 30 10 16 1009.8 1008.5 0.0
09/11:30am 34.4 34.7 20.4 44 9.4 ESE 19 28 10 15 1010.2 1008.9 0.0
09/11:00am 33.2 34.0 20.7 47 8.4 ESE 17 24 9 13 1010.4 1009.1 0.0
09/10:30am 32.9 33.8 20.8 49 8.2 ESE 17 26 9 14 1010.6 1009.3 0.0
09/10:00am 32.1 32.8 20.4 50 7.8 ESE 17 26 9 14 1010.7 1009.4 0.0
09/09:30am 31.5 31.6 20.4 51 7.4 ESE 20 26 11 14 1010.6 1009.3 0.0
09/09:00am 31.5 32.0 20.8 53 7.2 SE 19 30 10 16 1010.3 1009.0 0.0
09/08:30am 30.0 30.9 20.8 57 6.2 SE 17 22 9 12 1010.0 1008.7 0.0
09/08:00am 28.7 29.8 20.4 60 5.5 SE 15 20 8 11 1010.0 1008.7 0.0
09/07:30am 26.8 28.1 20.2 67 4.3 SE 13 19 7 10 1009.7 1008.4 0.0
09/07:00am 26.0 27.3 20.1 70 3.9 SSE 13 15 7 8 1009.4 1008.1 0.0
09/06:30am 26.0 27.3 20.1 70 3.9 SSE 13 19 7 10 1009.0 1007.7 0.0
09/06:00am 26.1 27.9 20.4 71 3.8 SSE 11 13 6 7 1008.7 1007.4 0.0
09/05:30am 25.9 27.8 20.5 72 3.6 SE 11 13 6 7 1008.4 1007.1 0.0
09/05:00am 25.8 28.0 20.4 72 3.6 SE 9 11 5 6 1008.2 1006.9 0.0
09/04:30am 26.1 28.8 20.7 72 3.6 SE 7 9 4 5 1008.2 1006.9 0.0
09/04:00am 26.3 28.4 20.2 69 4.0 SSE 9 11 5 6 1008.1 1006.8 0.0
09/03:30am 26.9 28.8 19.8 65 4.6 SE 9 13 5 7 1008.1 1006.8 0.0
09/03:00am 26.9 28.8 19.8 65 4.7 SE 9 11 5 6 1008.1 1006.8 0.0
09/02:30am 27.6 29.2 19.9 63 5.1 SE 11 15 6 8 1008.2 1006.9 0.0
09/02:00am 27.6 29.2 19.9 63 5.1 SE 11 15 6 8 1008.4 1007.1 0.0
09/01:30am 27.8 29.5 20.1 63 5.1 SSE 11 15 6 8 1008.7 1007.4 0.0
09/01:00am 28.3 29.6 20.1 61 5.4 SE 13 15 7 8 1009.0 1007.7 0.0
09/12:30am 28.8 30.0 20.0 59 5.8 SE 13 19 7 10 1009.4 1008.1 0.0
09/12:00am 28.9 30.3 20.4 60 5.6 SSE 13 17 7 9 1009.7 1008.4 0.0
 
Date/Time
EST
Temp
°C
App
Temp
°C
Dew
Point
Rel
Hum
%
Delta-T
°C
Wind Press
QNH
hPa
Press
MSL
hPa
Rain
since 9 am
mm
Dir
 
Spd
km/h
Gust
km/h
Spd
kts
Gust
kts
08/11:30pm 29.2 31.0 20.4 59 5.8 SSE 11 17 6 9 1009.9 1008.6 0.0
08/11:00pm 29.9 30.9 20.2 56 6.4 SSE 15 17 8 9 1010.0 1008.7 0.0
08/10:30pm 29.6 31.5 20.5 58 6.1 SSE 11 15 6 8 1009.9 1008.6 0.0
08/10:00pm 30.2 31.6 20.4 55 6.5 SSE 13 17 7 9 1009.7 1008.4 0.0
08/09:30pm 30.7 31.9 20.6 54 6.8 SSE 15 22 8 12 1009.5 1008.2 0.0
08/09:00pm 29.2 32.3 21.4 63 5.3 S 7 9 4 5 1009.0 1007.7 0.0
08/08:30pm 30.0 33.4 21.7 61 5.6 S 6 7 3 4 1008.7 1007.4 0.0
08/08:00pm 30.9 33.4 20.2 53 7.1 S 7 9 4 5 1008.4 1007.1 0.0
08/07:30pm 32.0 33.7 19.3 47 8.4 S 9 11 5 6 1008.2 1006.9 0.0
08/07:00pm 33.9 34.0 18.4 40 10.2 S 15 20 8 11 1007.8 1006.4 0.0
08/06:30pm 34.6 33.7 18.2 37 10.7 S 20 28 11 15 1007.7 1006.3 0.0
08/06:00pm 35.1 34.4 18.6 37 10.9 S 20 28 11 15 1007.7 1006.3 0.0
08/05:30pm 35.3 34.5 18.4 37 11.1 SSE 20 26 11 14 1007.7 1006.3 0.0
08/05:00pm 35.3 34.3 18.8 37 10.9 SSE 22 33 12 18 1007.8 1006.4 0.0
08/04:30pm 35.6 35.3 19.1 38 11.0 SSE 19 28 10 15 1007.9 1006.5 0.0
08/04:00pm 35.5 34.8 18.6 37 11.2 S 20 28 11 15 1008.1 1006.8 0.0
08/03:30pm 35.4 35.0 19.3 38 10.7 S 20 30 11 16 1008.3 1007.0 0.0
08/03:00pm 34.7 33.8 19.1 39 10.4 SSE 22 32 12 17 1008.7 1007.4 0.0
08/02:30pm 34.5 33.5 19.7 41 9.9 SSE 24 39 13 21 1009.2 1007.9 0.0
08/02:00pm 33.7 33.3 20.1 44 9.1 SSE 22 30 12 16 1009.6 1008.3 0.0
08/01:30pm 33.5 34.1 20.3 46 8.9 SSE 17 24 9 13 1010.2 1008.9 0.0
08/01:00pm 32.8 33.1 20.3 47 8.4 SSE 19 28 10 15 1010.6 1009.3 0.0
08/12:30pm 33.0 33.2 20.2 47 8.6 SSE 19 30 10 16 1011.0 1009.7 0.0
08/12:00pm 32.8 33.1 20.7 49 8.2 SSE 20 30 11 16 1011.3 1010.0 0.0
08/11:30am 32.1 32.4 20.7 51 7.7 SSE 20 30 11 16 1011.6 1010.3 0.0
08/11:00am 31.2 31.0 20.5 53 7.2 SSE 22 32 12 17 1011.9 1010.6 0.0
08/10:30am 30.9 31.3 21.7 58 6.2 SE 22 32 12 17 1011.8 1010.5 0.0
08/10:00am 30.3 30.9 21.4 59 6.0 SSE 20 28 11 15 1011.8 1010.5 0.0
08/09:30am 29.6 29.8 21.3 61 5.6 SE 22 32 12 17 1011.8 1010.5 0.0
08/09:00am 28.4 28.3 20.7 63 5.1 SE 22 30 12 16 1011.8 1010.5 0.0
08/08:30am 27.9 27.7 20.5 64 4.9 SSE 22 30 12 16 1011.7 1010.4 0.0
08/08:00am 27.2 27.5 20.3 66 4.6 SSE 19 28 10 15 1011.4 1010.1 0.0
08/07:30am 26.4 27.4 20.3 69 4.0 SSE 15 22 8 12 1011.3 1010.0 0.0
08/07:00am 25.4 26.7 20.2 73 3.4 SSE 13 20 7 11 1010.9 1009.6 0.0
08/06:30am 24.8 26.6 20.3 76 2.9 SSE 11 17 6 9 1010.5 1009.2 0.0
08/06:00am 24.8 26.5 20.1 75 3.1 S 11 15 6 8 1010.2 1008.9 0.0
08/05:30am 24.8 26.3 19.8 74 3.3 SSE 11 15 6 8 1010.1 1008.8 0.0
08/05:00am 25.2 26.4 19.8 72 3.5 SSE 13 15 7 8 1010.1 1008.8 0.0
08/04:30am 25.4 26.6 19.8 71 3.6 SSE 13 15 7 8 1009.9 1008.6 0.0
08/04:00am 25.4 26.9 19.8 71 3.7 SSE 11 15 6 8 1009.8 1008.5 0.0
08/03:30am 25.8 26.9 19.7 69 4.0 SSE 13 17 7 9 1009.7 1008.4 0.0
08/03:00am 25.9 27.1 20.0 70 3.9 SSE 13 17 7 9 1009.8 1008.5 0.0
08/02:30am 25.9 27.1 20.0 70 3.9 SSE 13 17 7 9 1009.9 1008.6 0.0
08/02:00am 25.8 27.6 20.4 72 3.6 SSE 11 13 6 7 1010.1 1008.8 0.0
08/01:30am 25.9 28.0 20.2 71 3.7 SE 9 9 5 5 1010.4 1009.1 0.0
08/01:00am 26.6 28.6 20.0 67 4.3 SE 9 11 5 6 1010.6 1009.3 0.0
08/12:30am 27.8 29.0 19.8 61 5.2 SSE 13 19 7 10 1010.8 1009.5 0.0
08/12:00am 28.2 29.4 20.0 61 5.4 SSE 13 17 7 9 1010.7 1009.4 0.0
 
Date/Time
EST
Temp
°C
App
Temp
°C
Dew
Point
Rel
Hum
%
Delta-T
°C
Wind Press
QNH
hPa
Press
MSL
hPa
Rain
since 9 am
mm
Dir
 
Spd
km/h
Gust
km/h
Spd
kts
Gust
kts
07/11:30pm 28.4 29.6 19.9 60 5.6 SSE 13 17 7 9 1010.7 1009.4 0.0
07/11:00pm 28.7 30.1 20.4 60 5.5 SSE 13 17 7 9 1010.8 1009.5 0.0
07/10:30pm 28.9 30.2 20.1 59 5.8 S 13 17 7 9 1010.4 1009.1 0.0
07/10:00pm 29.1 30.5 20.3 59 5.8 S 13 15 7 8 1010.2 1008.9 0.0
07/09:30pm 29.4 30.9 20.5 58 5.9 S 13 15 7 8 1009.9 1008.6 0.0
07/09:00pm 29.6 31.8 20.5 58 6.1 S 9 13 5 7 1009.6 1008.3 0.0
07/08:30pm 29.9 31.8 20.5 57 6.3 S 11 13 6 7 1009.3 1008.0 0.0
07/08:00pm 30.2 32.4 20.4 55 6.5 S 9 11 5 6 1008.9 1007.6 0.0
07/07:30pm 31.8 32.6 19.1 47 8.3 SSE 13 17 7 9 1008.4 1007.1 0.0
07/07:00pm 33.6 33.3 17.3 37 10.5 S 15 22 8 12 1008.0 1006.7 0.0
07/06:30pm 34.4 33.8 17.6 37 10.9 S 17 26 9 14 1007.6 1006.2 0.0
07/06:00pm 34.7 34.0 18.3 38 10.8 SSE 19 30 10 16 1007.3 1005.9 0.0
07/05:30pm 35.1 34.2 18.2 36 11.1 S 20 26 11 14 1007.1 1005.7 0.0
07/05:00pm 35.2 34.7 17.9 36 11.3 SSE 17 26 9 14 1007.0 1005.6 0.0
07/04:30pm 35.3 34.3 18.0 36 11.3 SSE 20 28 11 15 1007.2 1005.8 0.0
07/04:00pm 35.3 34.3 18.0 36 11.3 SSE 20 28 11 15 1007.3 1005.9 0.0
07/03:30pm 35.7 35.6 18.7 36 11.2 SSE 17 26 9 14 1007.5 1006.1 0.0
07/03:00pm 34.8 34.0 18.4 38 10.8 SSE 20 28 11 15 1007.8 1006.4 0.0
07/02:30pm 35.2 34.9 19.1 38 10.7 SSE 19 28 10 15 1007.9 1006.5 0.0
07/02:00pm 35.2 34.3 18.3 36 11.1 SSE 20 35 11 19 1008.2 1006.9 0.0
07/01:30pm 34.7 34.6 19.5 40 10.1 S 19 28 10 15 1008.4 1007.1 0.0
07/01:00pm 33.9 34.0 19.9 43 9.4 SSE 19 28 10 15 1008.8 1007.5 0.0
07/12:30pm 34.0 33.9 19.6 42 9.6 S 19 24 10 13 1009.0 1007.7 0.0
07/12:00pm 33.5 34.5 21.0 48 8.5 SSE 17 24 9 13 1009.2 1007.9 0.0
07/11:30am 32.6 33.7 20.5 49 8.1 SSE 15 22 8 12 1009.5 1008.2 0.0
07/11:00am 32.5 33.0 20.1 48 8.3 SE 17 22 9 12 1009.6 1008.3 0.0

Other Formats:

Comma delimited format used in spreadsheet applications
http://www.bom.gov.au/fwo/IDQ60801/IDQ60801.94344.axf

JavaScript Object Notation format (JSON) in row-major order
http://www.bom.gov.au/fwo/IDQ60801/IDQ60801.94344.json